Address 0x66d7b2a5d7b21845e0a15a03cdfd0b616dcdd68e

Txn Hash
Block
From
To
Value [Txn Fee]
0x0fba03c11b0b4de06430c4e38f80b33b9603f7d8cd216b85635d957cb0b5d13e98944602021-06-20 9:18:4034 days 58 mins ago0x66d7b2a5d7b21845e0a15a03cdfd0b616dcdd68eOUT0x057b2bbfcd3745bef8e5f3f2fc50ffd908147ced0.1 BNB0.00021
0xb157feccc8454565c4d5edeb68dc7fbab3922a3855a322325b30187006f5706d98941052021-06-20 9:00:5534 days 1 hr ago0x66d7b2a5d7b21845e0a15a03cdfd0b616dcdd68eOUT0x057b2bbfcd3745bef8e5f3f2fc50ffd908147ced1.3 BNB0.00021
0xbded18756d80ddf34504e7148206198251aa036e8f9d0f1d6a49fb0d1719048598940332021-06-20 8:57:1934 days 1 hr ago0x66d7b2a5d7b21845e0a15a03cdfd0b616dcdd68eOUT0x057b2bbfcd3745bef8e5f3f2fc50ffd908147ced5 BNB0.00021
0xf24b6f17255a961135151869b284a7837779c291b33aa85c3ae4a4673e5f5fe198930302021-06-20 8:07:1034 days 2 hrs ago0x66d7b2a5d7b21845e0a15a03cdfd0b616dcdd68eOUT0x6e82554d7c496baccc8d0bcb104a50b772d22a1f1 BNB0.00021
0x503763a3b5608eaf43f8972871b6470c32c586379aeb6ede95f52b3a57fdbae998475512021-06-18 18:13:1335 days 16 hrs ago0x66d7b2a5d7b21845e0a15a03cdfd0b616dcdd68eOUT 0x5dc42f7d278228e0bffe7ddb1a1b31c6c3d826fa0 BNB0.00303358
0x1e5d271b1037a7ba8107a9f661fd3f91024104075090781093e654be52f691e498475352021-06-18 18:12:2535 days 16 hrs ago0x66d7b2a5d7b21845e0a15a03cdfd0b616dcdd68eOUT 0x5dc42f7d278228e0bffe7ddb1a1b31c6c3d826fa0 BNB0.00303358
0xa26fcb907f32d31a5e9f9234cc51c5975c684478e758d75f1e01844760bc90f898392782021-06-18 11:19:3435 days 22 hrs ago0x66d7b2a5d7b21845e0a15a03cdfd0b616dcdd68eOUT 0x5dc42f7d278228e0bffe7ddb1a1b31c6c3d826fa0 BNB0.00306822
0x6d3e3fd01720ef5b4da34a67489bc4ec1008d77d43f30688f762284ef499b64c98392752021-06-18 11:19:2535 days 22 hrs ago0x66d7b2a5d7b21845e0a15a03cdfd0b616dcdd68eOUT 0x5dc42f7d278228e0bffe7ddb1a1b31c6c3d826fa0 BNB0.00306822
0x9b3b820677ef1f1c20435b851cd4282c63eecfa34b2daa05fdd0376363772a3d98392712021-06-18 11:19:1335 days 22 hrs ago0x66d7b2a5d7b21845e0a15a03cdfd0b616dcdd68eOUT 0x5dc42f7d278228e0bffe7ddb1a1b31c6c3d826fa0 BNB0.00306822
0xada2da4682a4bbfaa2e64d06c77ac6c7aaaf1150ae56a2a8036c4db6f0eb019d98392682021-06-18 11:19:0435 days 22 hrs ago0x66d7b2a5d7b21845e0a15a03cdfd0b616dcdd68eOUT 0x5dc42f7d278228e0bffe7ddb1a1b31c6c3d826fa0 BNB0.00306822
0x9d211f5325b9dd94f65a7e27b4a3840f528d203c9d966cb47019a60ee947ae3098392652021-06-18 11:18:5535 days 22 hrs ago0x66d7b2a5d7b21845e0a15a03cdfd0b616dcdd68eOUT 0x5dc42f7d278228e0bffe7ddb1a1b31c6c3d826fa0 BNB0.00306822
0xe9126f4e0396c3de24cf4611bf42429e7e9123663bb2ed4357a74a9accb63b6e98392602021-06-18 11:18:4035 days 22 hrs ago0x66d7b2a5d7b21845e0a15a03cdfd0b616dcdd68eOUT 0x5dc42f7d278228e0bffe7ddb1a1b31c6c3d826fa0 BNB0.00306822
0x9d5af2e21ebf671cfb91bd604914b1a2670d84de11652bf277e6a61ce8b7707f98392552021-06-18 11:18:2535 days 22 hrs ago0x66d7b2a5d7b21845e0a15a03cdfd0b616dcdd68eOUT 0x5dc42f7d278228e0bffe7ddb1a1b31c6c3d826fa0 BNB0.00306822
0x4850d223033ed28859000430848fd8166adcad76f0bedc729c49fac36e5c2d4b98392332021-06-18 11:17:1935 days 23 hrs ago0x66d7b2a5d7b21845e0a15a03cdfd0b616dcdd68eOUT 0x5dc42f7d278228e0bffe7ddb1a1b31c6c3d826fa0 BNB0.00321822
0xafd3e8d1c8ca91d132a6df1928e0a8273cdffc6fd62c73c631ae07fe1e04ce3898392022021-06-18 11:15:4635 days 23 hrs ago0x66d7b2a5d7b21845e0a15a03cdfd0b616dcdd68eOUT 0x382b25d391bb9d9b8e2d70747b764b1d992249270 BNB0.00232305
0xddd823e55232199be2423327de537378d7ca016c98b693b0bf57d3d1df6a443298391602021-06-18 11:13:4035 days 23 hrs ago0x66d7b2a5d7b21845e0a15a03cdfd0b616dcdd68eOUT 0x382b25d391bb9d9b8e2d70747b764b1d992249270 BNB0.00277281
0xc89e4677fb6cd59d8bd28af9b9577ae96ca7b02001767208ae7057d69c28132e98391502021-06-18 11:13:1035 days 23 hrs ago0x66d7b2a5d7b21845e0a15a03cdfd0b616dcdd68eOUT 0x382b25d391bb9d9b8e2d70747b764b1d992249270 BNB0.00028324
0xb0cdb5a351df5eae0c1dd6c0f4900aa5f09429b7a4b805bb487a9caf67332aa198374652021-06-18 9:48:5536 days 28 mins ago0x66d7b2a5d7b21845e0a15a03cdfd0b616dcdd68eOUT0x2925fdb25de3a0bad5dcb1b81b26f3cc034324241 BNB0.00021
0x6edb24548c467c2d30c1819e83d11d73f6f78780c0a9a6dbccbc040c1536823788383862021-05-14 15:50:5970 days 18 hrs ago0x66d7b2a5d7b21845e0a15a03cdfd0b616dcdd68eOUT 0x8cc0984eb7b50900d133698b64f3374c0aad1add0 BNB0.00043022
0x222e180f12da7bac37337dcafd3d90743baa0018e3451e162b1fc6a6565e0e4688383252021-05-14 15:47:5670 days 18 hrs ago0x66d7b2a5d7b21845e0a15a03cdfd0b616dcdd68eOUT0xb5b1f9d5c4f65e1211301ca0b430ea96bc349f940.5 BNB0.00021
0x0d30fd07ffafe1f65e3a8bba2f37323352d6dfeefdad7e941f1efddb1a1878c388379292021-05-14 15:28:0870 days 18 hrs ago0x66d7b2a5d7b21845e0a15a03cdfd0b616dcdd68eOUT 0x8cc0984eb7b50900d133698b64f3374c0aad1add0 BNB0.00032618
0xeb0a520c37864081e5795c8170b5680f7981a78d2619f3508e2203fc0ce0d2a988379162021-05-14 15:27:2970 days 18 hrs ago0x66d7b2a5d7b21845e0a15a03cdfd0b616dcdd68eOUT0xf0e56c59265322684201926b5a49883a5221938d0.5 BNB0.00021
0x3b89d800e528f4af5fa8e9d43322e29a05b588cc31f064c62805460a9cda511788345792021-05-14 12:40:3870 days 21 hrs ago0x66d7b2a5d7b21845e0a15a03cdfd0b616dcdd68eOUT 0x8cc0984eb7b50900d133698b64f3374c0aad1add0 BNB0.00062618
0xfcd04f7b56906ec1bda628f9c9cda3ae4780acb2bffc4931f8f71e5469ba0fb588345002021-05-14 12:36:4170 days 21 hrs ago0x66d7b2a5d7b21845e0a15a03cdfd0b616dcdd68eOUT0xb794e1e56c383f7260a90a24b5b5b38f2fcbdbe10.5 BNB0.00021
0x89f99ae24137769235ae47feac2885649679c8544dd2bc858967287a9edaa90288344472021-05-14 12:34:0270 days 21 hrs ago0x66d7b2a5d7b21845e0a15a03cdfd0b616dcdd68eOUT 0x8cc0984eb7b50900d133698b64f3374c0aad1add0 BNB0.0011407
[ Download CSV Export 
Parent Txn Hash Block From To Value
Loading

Contract Name:
0 BNB

Compiler Version
0

Optimization Enabled:
0 BNB

Other Settings:
-NA-
Block Transaction Gas Used Reward
Age Block Fee Address BC Fee Address Voting Power Jailed Incoming
Block Uncle Number Difficulty Gas Used Reward
Loading